sensor_id;sensor_type;location;lat;lon;timestamp;P1;durP1;ratioP1;P2;durP2;ratioP2
4630;SDS011;2328;48.170;11.602;2022-12-20T00:00:36;10.27;;;4.63;;
4630;SDS011;2328;48.170;11.602;2022-12-20T00:03:07;6.97;;;2.53;;
4630;SDS011;2328;48.170;11.602;2022-12-20T00:05:38;9.83;;;4.70;;
4630;SDS011;2328;48.170;11.602;2022-12-20T00:08:09;12.23;;;4.80;;
4630;SDS011;2328;48.170;11.602;2022-12-20T00:10:40;16.93;;;5.40;;
4630;SDS011;2328;48.170;11.602;2022-12-20T00:13:11;12.03;;;5.53;;
4630;SDS011;2328;48.170;11.602;2022-12-20T00:15:41;12.33;;;5.00;;
4630;SDS011;2328;48.170;11.602;2022-12-20T00:18:14;12.20;;;4.60;;
4630;SDS011;2328;48.170;11.602;2022-12-20T00:20:48;7.00;;;4.43;;
4630;SDS011;2328;48.170;11.602;2022-12-20T00:23:41;9.80;;;4.43;;
4630;SDS011;2328;48.170;11.602;2022-12-20T00:26:26;9.20;;;4.90;;
4630;SDS011;2328;48.170;11.602;2022-12-20T00:29:00;9.17;;;4.00;;
4630;SDS011;2328;48.170;11.602;2022-12-20T00:31:37;4.07;;;3.50;;
4630;SDS011;2328;48.170;11.602;2022-12-20T00:34:11;9.53;;;4.20;;
4630;SDS011;2328;48.170;11.602;2022-12-20T00:36:47;7.60;;;3.97;;
4630;SDS011;2328;48.170;11.602;2022-12-20T00:39:18;5.17;;;3.63;;
4630;SDS011;2328;48.170;11.602;2022-12-20T00:41:47;8.13;;;3.93;;
4630;SDS011;2328;48.170;11.602;2022-12-20T00:44:16;6.40;;;3.70;;
4630;SDS011;2328;48.170;11.602;2022-12-20T00:46:49;5.43;;;3.63;;
4630;SDS011;2328;48.170;11.602;2022-12-20T00:49:34;7.10;;;4.20;;
4630;SDS011;2328;48.170;11.602;2022-12-20T00:52:03;11.03;;;4.30;;
4630;SDS011;2328;48.170;11.602;2022-12-20T00:54:36;6.73;;;3.17;;
4630;SDS011;2328;48.170;11.602;2022-12-20T00:57:10;15.27;;;5.57;;
4630;SDS011;2328;48.170;11.602;2022-12-20T00:59:41;10.70;;;4.50;;
4630;SDS011;2328;48.170;11.602;2022-12-20T01:02:13;7.43;;;3.80;;
4630;SDS011;2328;48.170;11.602;2022-12-20T01:04:43;6.50;;;3.90;;
4630;SDS011;2328;48.170;11.602;2022-12-20T01:07:12;9.70;;;5.10;;
4630;SDS011;2328;48.170;11.602;2022-12-20T01:09:48;11.23;;;5.17;;
4630;SDS011;2328;48.170;11.602;2022-12-20T01:12:23;9.53;;;5.07;;
4630;SDS011;2328;48.170;11.602;2022-12-20T01:14:52;7.60;;;5.77;;
4630;SDS011;2328;48.170;11.602;2022-12-20T01:17:24;7.00;;;4.03;;
4630;SDS011;2328;48.170;11.602;2022-12-20T01:20:09;16.90;;;4.77;;
4630;SDS011;2328;48.170;11.602;2022-12-20T01:22:57;10.43;;;3.50;;
4630;SDS011;2328;48.170;11.602;2022-12-20T01:25:39;7.70;;;4.03;;
4630;SDS011;2328;48.170;11.602;2022-12-20T01:28:12;13.73;;;5.17;;
4630;SDS011;2328;48.170;11.602;2022-12-20T01:30:41;10.17;;;4.87;;
4630;SDS011;2328;48.170;11.602;2022-12-20T01:33:10;13.73;;;5.30;;
4630;SDS011;2328;48.170;11.602;2022-12-20T01:35:39;12.17;;;4.20;;
4630;SDS011;2328;48.170;11.602;2022-12-20T01:38:10;6.93;;;4.30;;
4630;SDS011;2328;48.170;11.602;2022-12-20T01:40:48;11.57;;;5.00;;
4630;SDS011;2328;48.170;11.602;2022-12-20T01:43:20;8.77;;;3.97;;
4630;SDS011;2328;48.170;11.602;2022-12-20T01:46:00;10.50;;;4.73;;
4630;SDS011;2328;48.170;11.602;2022-12-20T01:48:33;10.80;;;4.33;;
4630;SDS011;2328;48.170;11.602;2022-12-20T01:51:02;4.93;;;3.60;;
4630;SDS011;2328;48.170;11.602;2022-12-20T01:53:40;10.20;;;5.30;;
4630;SDS011;2328;48.170;11.602;2022-12-20T01:56:19;5.43;;;4.20;;
4630;SDS011;2328;48.170;11.602;2022-12-20T01:58:50;8.90;;;4.93;;
4630;SDS011;2328;48.170;11.602;2022-12-20T02:01:24;6.60;;;4.67;;
4630;SDS011;2328;48.170;11.602;2022-12-20T02:04:06;5.90;;;3.43;;
4630;SDS011;2328;48.170;11.602;2022-12-20T02:06:38;11.33;;;4.77;;
4630;SDS011;2328;48.170;11.602;2022-12-20T02:09:08;10.83;;;5.33;;
4630;SDS011;2328;48.170;11.602;2022-12-20T02:11:59;7.57;;;5.00;;
4630;SDS011;2328;48.170;11.602;2022-12-20T02:14:41;11.40;;;5.50;;
4630;SDS011;2328;48.170;11.602;2022-12-20T02:17:20;10.53;;;4.40;;
4630;SDS011;2328;48.170;11.602;2022-12-20T02:20:05;8.30;;;5.23;;
4630;SDS011;2328;48.170;11.602;2022-12-20T02:23:00;9.47;;;5.50;;
4630;SDS011;2328;48.170;11.602;2022-12-20T02:25:50;17.60;;;5.70;;
4630;SDS011;2328;48.170;11.602;2022-12-20T02:28:37;11.13;;;4.60;;
4630;SDS011;2328;48.170;11.602;2022-12-20T02:31:16;5.10;;;4.03;;
4630;SDS011;2328;48.170;11.602;2022-12-20T02:33:48;8.33;;;5.10;;
4630;SDS011;2328;48.170;11.602;2022-12-20T02:36:23;10.80;;;4.67;;
4630;SDS011;2328;48.170;11.602;2022-12-20T02:39:07;12.87;;;5.03;;
4630;SDS011;2328;48.170;11.602;2022-12-20T02:41:41;13.00;;;4.90;;
4630;SDS011;2328;48.170;11.602;2022-12-20T02:44:18;6.23;;;4.27;;
4630;SDS011;2328;48.170;11.602;2022-12-20T02:47:12;5.77;;;3.87;;
4630;SDS011;2328;48.170;11.602;2022-12-20T02:50:02;5.73;;;4.23;;
4630;SDS011;2328;48.170;11.602;2022-12-20T02:52:33;12.40;;;3.87;;
4630;SDS011;2328;48.170;11.602;2022-12-20T02:55:08;6.43;;;3.80;;
4630;SDS011;2328;48.170;11.602;2022-12-20T02:57:37;7.97;;;3.70;;
4630;SDS011;2328;48.170;11.602;2022-12-20T03:00:27;6.50;;;3.23;;
4630;SDS011;2328;48.170;11.602;2022-12-20T03:03:04;6.83;;;3.67;;
4630;SDS011;2328;48.170;11.602;2022-12-20T03:05:53;5.97;;;4.03;;
4630;SDS011;2328;48.170;11.602;2022-12-20T03:08:26;4.43;;;3.30;;
4630;SDS011;2328;48.170;11.602;2022-12-20T03:10:58;13.67;;;4.40;;
4630;SDS011;2328;48.170;11.602;2022-12-20T03:13:31;5.30;;;3.57;;
4630;SDS011;2328;48.170;11.602;2022-12-20T03:16:00;7.57;;;4.00;;
4630;SDS011;2328;48.170;11.602;2022-12-20T03:18:39;11.93;;;3.23;;
4630;SDS011;2328;48.170;11.602;2022-12-20T03:21:19;4.60;;;2.60;;
4630;SDS011;2328;48.170;11.602;2022-12-20T03:23:53;6.10;;;3.43;;
4630;SDS011;2328;48.170;11.602;2022-12-20T03:26:24;10.27;;;4.10;;
4630;SDS011;2328;48.170;11.602;2022-12-20T03:28:57;6.30;;;3.10;;
4630;SDS011;2328;48.170;11.602;2022-12-20T03:31:33;2.67;;;2.47;;
4630;SDS011;2328;48.170;11.602;2022-12-20T03:34:09;7.13;;;3.00;;
4630;SDS011;2328;48.170;11.602;2022-12-20T03:36:40;11.43;;;3.17;;
4630;SDS011;2328;48.170;11.602;2022-12-20T03:39:08;4.67;;;2.40;;
4630;SDS011;2328;48.170;11.602;2022-12-20T03:41:40;4.53;;;2.97;;
4630;SDS011;2328;48.170;11.602;2022-12-20T03:44:09;5.60;;;2.73;;
4630;SDS011;2328;48.170;11.602;2022-12-20T03:46:38;5.43;;;2.53;;
4630;SDS011;2328;48.170;11.602;2022-12-20T03:49:16;4.33;;;2.90;;
4630;SDS011;2328;48.170;11.602;2022-12-20T03:51:45;3.70;;;2.57;;
4630;SDS011;2328;48.170;11.602;2022-12-20T03:54:14;5.33;;;2.57;;
4630;SDS011;2328;48.170;11.602;2022-12-20T03:56:45;4.80;;;2.77;;
4630;SDS011;2328;48.170;11.602;2022-12-20T03:59:14;3.43;;;2.83;;
4630;SDS011;2328;48.170;11.602;2022-12-20T04:01:47;4.50;;;2.23;;
4630;SDS011;2328;48.170;11.602;2022-12-20T04:07:08;5.27;;;2.00;;
4630;SDS011;2328;48.170;11.602;2022-12-20T04:09:40;1.83;;;1.57;;
4630;SDS011;2328;48.170;11.602;2022-12-20T04:12:14;3.07;;;1.90;;
4630;SDS011;2328;48.170;11.602;2022-12-20T04:14:56;3.80;;;1.97;;
4630;SDS011;2328;48.170;11.602;2022-12-20T04:17:33;6.03;;;2.00;;
4630;SDS011;2328;48.170;11.602;2022-12-20T04:20:25;2.90;;;1.70;;
4630;SDS011;2328;48.170;11.602;2022-12-20T04:23:19;2.23;;;1.60;;
4630;SDS011;2328;48.170;11.602;2022-12-20T04:26:00;3.00;;;2.33;;
4630;SDS011;2328;48.170;11.602;2022-12-20T04:29:15;2.27;;;1.60;;
4630;SDS011;2328;48.170;11.602;2022-12-20T04:31:56;1.97;;;1.30;;
4630;SDS011;2328;48.170;11.602;2022-12-20T04:34:31;3.43;;;2.07;;
4630;SDS011;2328;48.170;11.602;2022-12-20T04:37:06;2.90;;;1.80;;
4630;SDS011;2328;48.170;11.602;2022-12-20T04:39:49;2.80;;;2.20;;
4630;SDS011;2328;48.170;11.602;2022-12-20T04:42:35;2.63;;;2.20;;
4630;SDS011;2328;48.170;11.602;2022-12-20T04:45:05;3.10;;;2.40;;
4630;SDS011;2328;48.170;11.602;2022-12-20T04:47:57;4.67;;;1.70;;
4630;SDS011;2328;48.170;11.602;2022-12-20T04:50:56;6.00;;;3.03;;
4630;SDS011;2328;48.170;11.602;2022-12-20T04:53:32;11.70;;;2.40;;
4630;SDS011;2328;48.170;11.602;2022-12-20T04:59:07;1.43;;;1.33;;
4630;SDS011;2328;48.170;11.602;2022-12-20T05:01:40;4.50;;;1.90;;
4630;SDS011;2328;48.170;11.602;2022-12-20T05:04:21;1.20;;;1.10;;
4630;SDS011;2328;48.170;11.602;2022-12-20T05:06:58;2.03;;;1.00;;
4630;SDS011;2328;48.170;11.602;2022-12-20T05:09:29;3.23;;;1.30;;
4630;SDS011;2328;48.170;11.602;2022-12-20T05:12:04;2.07;;;1.40;;
4630;SDS011;2328;48.170;11.602;2022-12-20T05:14:43;3.17;;;1.27;;
4630;SDS011;2328;48.170;11.602;2022-12-20T05:17:14;1.63;;;1.13;;
4630;SDS011;2328;48.170;11.602;2022-12-20T05:19:51;2.33;;;1.20;;
4630;SDS011;2328;48.170;11.602;2022-12-20T05:22:33;1.93;;;1.63;;
4630;SDS011;2328;48.170;11.602;2022-12-20T05:25:19;4.17;;;1.70;;
4630;SDS011;2328;48.170;11.602;2022-12-20T05:28:11;1.80;;;1.33;;
4630;SDS011;2328;48.170;11.602;2022-12-20T05:30:51;3.80;;;1.83;;
4630;SDS011;2328;48.170;11.602;2022-12-20T05:33:34;4.07;;;1.70;;
4630;SDS011;2328;48.170;11.602;2022-12-20T05:36:07;4.17;;;1.47;;
4630;SDS011;2328;48.170;11.602;2022-12-20T05:38:59;3.60;;;1.80;;
4630;SDS011;2328;48.170;11.602;2022-12-20T05:42:08;2.30;;;1.53;;
4630;SDS011;2328;48.170;11.602;2022-12-20T05:44:45;1.50;;;1.40;;
4630;SDS011;2328;48.170;11.602;2022-12-20T05:47:36;2.10;;;1.10;;
4630;SDS011;2328;48.170;11.602;2022-12-20T05:50:27;1.83;;;1.20;;
4630;SDS011;2328;48.170;11.602;2022-12-20T05:52:59;2.73;;;1.30;;
4630;SDS011;2328;48.170;11.602;2022-12-20T05:55:42;2.50;;;1.40;;
4630;SDS011;2328;48.170;11.602;2022-12-20T05:58:55;3.20;;;1.33;;
4630;SDS011;2328;48.170;11.602;2022-12-20T06:01:23;2.53;;;1.10;;
4630;SDS011;2328;48.170;11.602;2022-12-20T06:10:22;2.10;;;1.33;;
4630;SDS011;2328;48.170;11.602;2022-12-20T06:13:21;1.77;;;1.13;;
4630;SDS011;2328;48.170;11.602;2022-12-20T06:16:05;2.67;;;1.20;;
4630;SDS011;2328;48.170;11.602;2022-12-20T06:19:05;1.80;;;1.23;;
4630;SDS011;2328;48.170;11.602;2022-12-20T06:21:49;2.27;;;1.03;;
4630;SDS011;2328;48.170;11.602;2022-12-20T06:24:24;1.43;;;1.30;;
4630;SDS011;2328;48.170;11.602;2022-12-20T06:27:04;1.70;;;1.60;;
4630;SDS011;2328;48.170;11.602;2022-12-20T06:29:47;1.70;;;1.40;;
4630;SDS011;2328;48.170;11.602;2022-12-20T06:32:35;2.27;;;1.83;;
4630;SDS011;2328;48.170;11.602;2022-12-20T06:35:14;1.70;;;1.03;;
4630;SDS011;2328;48.170;11.602;2022-12-20T06:41:10;6.20;;;2.60;;
4630;SDS011;2328;48.170;11.602;2022-12-20T06:44:14;2.63;;;1.90;;
4630;SDS011;2328;48.170;11.602;2022-12-20T06:46:52;2.63;;;2.40;;
4630;SDS011;2328;48.170;11.602;2022-12-20T06:49:24;2.80;;;1.77;;
4630;SDS011;2328;48.170;11.602;2022-12-20T06:51:55;1.90;;;1.50;;
4630;SDS011;2328;48.170;11.602;2022-12-20T06:54:24;2.83;;;1.80;;
4630;SDS011;2328;48.170;11.602;2022-12-20T06:56:54;3.43;;;1.43;;
4630;SDS011;2328;48.170;11.602;2022-12-20T06:59:25;3.90;;;1.27;;
4630;SDS011;2328;48.170;11.602;2022-12-20T07:01:55;1.90;;;1.23;;
4630;SDS011;2328;48.170;11.602;2022-12-20T07:04:24;1.63;;;1.10;;
4630;SDS011;2328;48.170;11.602;2022-12-20T07:09:39;2.13;;;0.97;;
4630;SDS011;2328;48.170;11.602;2022-12-20T07:12:09;2.07;;;1.20;;
4630;SDS011;2328;48.170;11.602;2022-12-20T07:14:40;1.80;;;1.27;;
4630;SDS011;2328;48.170;11.602;2022-12-20T07:17:09;2.10;;;1.47;;
4630;SDS011;2328;48.170;11.602;2022-12-20T07:19:41;1.00;;;0.90;;
4630;SDS011;2328;48.170;11.602;2022-12-20T07:22:16;1.53;;;1.13;;
4630;SDS011;2328;48.170;11.602;2022-12-20T07:27:39;2.00;;;1.60;;
4630;SDS011;2328;48.170;11.602;2022-12-20T07:30:18;1.53;;;1.10;;
4630;SDS011;2328;48.170;11.602;2022-12-20T07:33:05;1.17;;;0.90;;
4630;SDS011;2328;48.170;11.602;2022-12-20T07:35:58;1.27;;;1.00;;
4630;SDS011;2328;48.170;11.602;2022-12-20T07:38:27;3.43;;;1.47;;
4630;SDS011;2328;48.170;11.602;2022-12-20T07:40:56;1.30;;;1.10;;
4630;SDS011;2328;48.170;11.602;2022-12-20T07:43:27;1.77;;;1.40;;
4630;SDS011;2328;48.170;11.602;2022-12-20T07:45:58;1.27;;;1.17;;
4630;SDS011;2328;48.170;11.602;2022-12-20T07:48:28;3.73;;;1.87;;
4630;SDS011;2328;48.170;11.602;2022-12-20T07:50:58;2.10;;;1.30;;
4630;SDS011;2328;48.170;11.602;2022-12-20T07:53:27;1.60;;;1.10;;
4630;SDS011;2328;48.170;11.602;2022-12-20T07:55:59;1.40;;;1.30;;
4630;SDS011;2328;48.170;11.602;2022-12-20T07:58:42;2.20;;;1.50;;
4630;SDS011;2328;48.170;11.602;2022-12-20T08:01:41;2.70;;;1.80;;
4630;SDS011;2328;48.170;11.602;2022-12-20T08:04:13;2.43;;;1.27;;
4630;SDS011;2328;48.170;11.602;2022-12-20T08:09:46;2.33;;;1.23;;
4630;SDS011;2328;48.170;11.602;2022-12-20T08:12:15;1.83;;;1.27;;
4630;SDS011;2328;48.170;11.602;2022-12-20T08:14:45;2.00;;;1.33;;
4630;SDS011;2328;48.170;11.602;2022-12-20T08:17:15;7.93;;;1.70;;
4630;SDS011;2328;48.170;11.602;2022-12-20T08:19:46;5.33;;;1.87;;
4630;SDS011;2328;48.170;11.602;2022-12-20T08:22:17;3.73;;;1.47;;
4630;SDS011;2328;48.170;11.602;2022-12-20T08:24:46;2.20;;;1.17;;
4630;SDS011;2328;48.170;11.602;2022-12-20T08:27:15;1.90;;;1.37;;
4630;SDS011;2328;48.170;11.602;2022-12-20T08:29:44;1.90;;;1.47;;
4630;SDS011;2328;48.170;11.602;2022-12-20T08:37:40;2.30;;;1.43;;
4630;SDS011;2328;48.170;11.602;2022-12-20T08:40:17;2.10;;;1.10;;
4630;SDS011;2328;48.170;11.602;2022-12-20T08:42:47;3.37;;;1.50;;
4630;SDS011;2328;48.170;11.602;2022-12-20T08:45:17;1.67;;;1.47;;
4630;SDS011;2328;48.170;11.602;2022-12-20T08:47:46;2.97;;;1.63;;
4630;SDS011;2328;48.170;11.602;2022-12-20T08:50:21;1.57;;;1.13;;
4630;SDS011;2328;48.170;11.602;2022-12-20T08:53:00;1.03;;;0.93;;
4630;SDS011;2328;48.170;11.602;2022-12-20T08:55:32;2.13;;;1.00;;
4630;SDS011;2328;48.170;11.602;2022-12-20T09:01:41;1.90;;;0.93;;
4630;SDS011;2328;48.170;11.602;2022-12-20T09:04:57;2.60;;;1.33;;
4630;SDS011;2328;48.170;11.602;2022-12-20T09:10:28;5.37;;;1.70;;
4630;SDS011;2328;48.170;11.602;2022-12-20T09:16:48;2.20;;;1.27;;
4630;SDS011;2328;48.170;11.602;2022-12-20T12:35:51;3.23;;;2.63;;
4630;SDS011;2328;48.170;11.602;2022-12-20T12:45:39;7.70;;;2.33;;
4630;SDS011;2328;48.170;11.602;2022-12-20T13:18:24;4.03;;;3.37;;
4630;SDS011;2328;48.170;11.602;2022-12-20T13:30:46;2.13;;;1.80;;
4630;SDS011;2328;48.170;11.602;2022-12-20T13:33:19;6.37;;;2.10;;
4630;SDS011;2328;48.170;11.602;2022-12-20T13:35:58;2.40;;;2.17;;
4630;SDS011;2328;48.170;11.602;2022-12-20T13:41:37;3.60;;;2.33;;
4630;SDS011;2328;48.170;11.602;2022-12-20T13:54:00;9.73;;;2.37;;
4630;SDS011;2328;48.170;11.602;2022-12-20T14:28:31;4.90;;;3.50;;
4630;SDS011;2328;48.170;11.602;2022-12-20T14:31:21;8.50;;;4.10;;
4630;SDS011;2328;48.170;11.602;2022-12-20T14:34:05;7.20;;;4.30;;
4630;SDS011;2328;48.170;11.602;2022-12-20T14:40:14;6.57;;;3.47;;
4630;SDS011;2328;48.170;11.602;2022-12-20T14:43:28;7.43;;;3.57;;
4630;SDS011;2328;48.170;11.602;2022-12-20T14:46:37;3.93;;;2.63;;
4630;SDS011;2328;48.170;11.602;2022-12-20T14:53:10;6.17;;;2.80;;
4630;SDS011;2328;48.170;11.602;2022-12-20T15:21:26;16.03;;;7.80;;
4630;SDS011;2328;48.170;11.602;2022-12-20T15:24:13;5.27;;;3.57;;
4630;SDS011;2328;48.170;11.602;2022-12-20T15:26:47;6.07;;;2.83;;
4630;SDS011;2328;48.170;11.602;2022-12-20T15:29:21;5.20;;;3.00;;
4630;SDS011;2328;48.170;11.602;2022-12-20T15:31:56;5.80;;;2.73;;
4630;SDS011;2328;48.170;11.602;2022-12-20T15:34:31;5.97;;;3.53;;
4630;SDS011;2328;48.170;11.602;2022-12-20T15:37:18;6.90;;;3.60;;
4630;SDS011;2328;48.170;11.602;2022-12-20T15:39:49;7.90;;;3.57;;
4630;SDS011;2328;48.170;11.602;2022-12-20T15:42:38;3.27;;;2.57;;
4630;SDS011;2328;48.170;11.602;2022-12-20T15:45:13;5.83;;;3.40;;
4630;SDS011;2328;48.170;11.602;2022-12-20T15:47:48;6.60;;;3.57;;
4630;SDS011;2328;48.170;11.602;2022-12-20T15:50:17;11.10;;;3.90;;
4630;SDS011;2328;48.170;11.602;2022-12-20T15:52:50;6.37;;;4.00;;
4630;SDS011;2328;48.170;11.602;2022-12-20T15:55:23;8.73;;;4.90;;
4630;SDS011;2328;48.170;11.602;2022-12-20T15:58:07;8.73;;;4.80;;
4630;SDS011;2328;48.170;11.602;2022-12-20T16:00:37;14.80;;;4.70;;
4630;SDS011;2328;48.170;11.602;2022-12-20T16:03:15;11.30;;;4.97;;
4630;SDS011;2328;48.170;11.602;2022-12-20T16:05:47;9.40;;;4.10;;
4630;SDS011;2328;48.170;11.602;2022-12-20T16:08:19;6.83;;;3.80;;
4630;SDS011;2328;48.170;11.602;2022-12-20T16:10:53;6.37;;;3.67;;
4630;SDS011;2328;48.170;11.602;2022-12-20T16:13:34;6.17;;;3.50;;
4630;SDS011;2328;48.170;11.602;2022-12-20T16:16:04;6.30;;;3.27;;
4630;SDS011;2328;48.170;11.602;2022-12-20T16:18:37;9.20;;;4.10;;
4630;SDS011;2328;48.170;11.602;2022-12-20T16:21:11;19.23;;;6.53;;
4630;SDS011;2328;48.170;11.602;2022-12-20T16:23:48;15.80;;;7.23;;
4630;SDS011;2328;48.170;11.602;2022-12-20T16:26:21;27.53;;;11.30;;
4630;SDS011;2328;48.170;11.602;2022-12-20T16:28:53;10.20;;;6.50;;
4630;SDS011;2328;48.170;11.602;2022-12-20T16:31:33;10.20;;;5.00;;
4630;SDS011;2328;48.170;11.602;2022-12-20T16:34:15;6.83;;;3.97;;
4630;SDS011;2328;48.170;11.602;2022-12-20T16:36:45;8.73;;;4.77;;
4630;SDS011;2328;48.170;11.602;2022-12-20T16:39:24;8.30;;;4.20;;
4630;SDS011;2328;48.170;11.602;2022-12-20T16:41:55;5.43;;;3.87;;
4630;SDS011;2328;48.170;11.602;2022-12-20T16:44:37;8.30;;;4.47;;
4630;SDS011;2328;48.170;11.602;2022-12-20T16:47:22;5.77;;;3.83;;
4630;SDS011;2328;48.170;11.602;2022-12-20T16:50:27;12.23;;;4.27;;
4630;SDS011;2328;48.170;11.602;2022-12-20T16:52:59;5.70;;;3.80;;
4630;SDS011;2328;48.170;11.602;2022-12-20T16:56:23;7.77;;;4.20;;
4630;SDS011;2328;48.170;11.602;2022-12-20T16:59:18;8.03;;;5.03;;
4630;SDS011;2328;48.170;11.602;2022-12-20T17:02:00;7.10;;;4.07;;
4630;SDS011;2328;48.170;11.602;2022-12-20T17:04:34;16.87;;;4.87;;
4630;SDS011;2328;48.170;11.602;2022-12-20T17:16:18;7.43;;;3.47;;
4630;SDS011;2328;48.170;11.602;2022-12-20T17:19:11;8.73;;;5.40;;
4630;SDS011;2328;48.170;11.602;2022-12-20T17:25:04;7.70;;;3.97;;
4630;SDS011;2328;48.170;11.602;2022-12-20T17:27:49;7.13;;;3.93;;
4630;SDS011;2328;48.170;11.602;2022-12-20T17:30:33;9.10;;;3.70;;
4630;SDS011;2328;48.170;11.602;2022-12-20T17:33:49;6.00;;;3.80;;
4630;SDS011;2328;48.170;11.602;2022-12-20T17:36:40;5.13;;;3.70;;
4630;SDS011;2328;48.170;11.602;2022-12-20T17:39:46;9.33;;;4.27;;
4630;SDS011;2328;48.170;11.602;2022-12-20T17:43:51;11.27;;;5.10;;
4630;SDS011;2328;48.170;11.602;2022-12-20T17:46:28;7.00;;;4.07;;
4630;SDS011;2328;48.170;11.602;2022-12-20T17:52:53;7.43;;;4.50;;
4630;SDS011;2328;48.170;11.602;2022-12-20T18:01:57;7.70;;;4.13;;
4630;SDS011;2328;48.170;11.602;2022-12-20T18:05:38;8.03;;;4.20;;
4630;SDS011;2328;48.170;11.602;2022-12-20T18:07:56;5.87;;;3.70;;
4630;SDS011;2328;48.170;11.602;2022-12-20T18:10:44;6.37;;;4.13;;
4630;SDS011;2328;48.170;11.602;2022-12-20T18:15:37;12.57;;;5.13;;
4630;SDS011;2328;48.170;11.602;2022-12-20T18:27:06;5.70;;;3.23;;
4630;SDS011;2328;48.170;11.602;2022-12-20T18:29:51;8.80;;;4.00;;
4630;SDS011;2328;48.170;11.602;2022-12-20T18:32:21;6.73;;;3.30;;
4630;SDS011;2328;48.170;11.602;2022-12-20T18:50:00;12.23;;;5.33;;
4630;SDS011;2328;48.170;11.602;2022-12-20T18:52:38;13.57;;;4.63;;
4630;SDS011;2328;48.170;11.602;2022-12-20T19:01:39;9.27;;;4.97;;
4630;SDS011;2328;48.170;11.602;2022-12-20T19:04:25;7.80;;;4.60;;
4630;SDS011;2328;48.170;11.602;2022-12-20T19:07:05;9.70;;;4.33;;
4630;SDS011;2328;48.170;11.602;2022-12-20T19:42:53;10.03;;;4.20;;
4630;SDS011;2328;48.170;11.602;2022-12-20T19:46:07;8.23;;;4.10;;
